Terminal Aerodrome Forecast
Issued by NWS

Home | Current Version | Previous Version | Text Only | Print | Product List | Glossary On
Versions: 1 2 3 4 5 6 7 8 9 10 11 12 13
746
FTUS42 KTAE 191347 AAA
TAFABY
TAF AMD
KABY 191347Z 1914/2012 00000KT P6SM BKN008
      TEMPO 1914/1915 3SM BR BKN003
     FM191600 33005KT P6SM BKN020
     FM191800 32005KT P6SM BKN030=

USA.gov is the U.S. government's official web portal to all federal, state and local government web resources and services.